sensor_id;sensor_type;location;lat;lon;timestamp;P1;durP1;ratioP1;P2;durP2;ratioP2
48578;SDS011;34357;51.948;6.132;2023-04-24T00:00:09;16.00;;;13.85;;
48578;SDS011;34357;51.948;6.132;2023-04-24T00:02:35;17.02;;;15.23;;
48578;SDS011;34357;51.948;6.132;2023-04-24T00:05:05;17.95;;;15.30;;
48578;SDS011;34357;51.948;6.132;2023-04-24T00:07:31;16.83;;;15.10;;
48578;SDS011;34357;51.948;6.132;2023-04-24T00:09:57;18.85;;;16.33;;
48578;SDS011;34357;51.948;6.132;2023-04-24T00:12:23;19.17;;;17.08;;
48578;SDS011;34357;51.948;6.132;2023-04-24T00:14:50;22.15;;;17.65;;
48578;SDS011;34357;51.948;6.132;2023-04-24T00:17:16;22.85;;;19.05;;
48578;SDS011;34357;51.948;6.132;2023-04-24T00:19:45;25.88;;;21.23;;
48578;SDS011;34357;51.948;6.132;2023-04-24T00:22:12;25.90;;;22.23;;
48578;SDS011;34357;51.948;6.132;2023-04-24T00:24:39;27.67;;;22.30;;
48578;SDS011;34357;51.948;6.132;2023-04-24T00:27:05;23.17;;;20.65;;
48578;SDS011;34357;51.948;6.132;2023-04-24T00:29:31;29.30;;;23.77;;
48578;SDS011;34357;51.948;6.132;2023-04-24T00:31:57;26.25;;;22.88;;
48578;SDS011;34357;51.948;6.132;2023-04-24T00:34:23;25.48;;;22.70;;
48578;SDS011;34357;51.948;6.132;2023-04-24T00:36:49;24.58;;;20.65;;
48578;SDS011;34357;51.948;6.132;2023-04-24T00:39:20;23.67;;;20.63;;
48578;SDS011;34357;51.948;6.132;2023-04-24T00:41:46;24.70;;;20.27;;
48578;SDS011;34357;51.948;6.132;2023-04-24T00:44:13;21.40;;;17.88;;
48578;SDS011;34357;51.948;6.132;2023-04-24T00:46:39;19.40;;;15.70;;
48578;SDS011;34357;51.948;6.132;2023-04-24T00:49:06;19.13;;;17.10;;
48578;SDS011;34357;51.948;6.132;2023-04-24T00:51:32;19.52;;;17.48;;
48578;SDS011;34357;51.948;6.132;2023-04-24T00:53:58;19.55;;;17.20;;
48578;SDS011;34357;51.948;6.132;2023-04-24T00:56:25;18.48;;;16.52;;
48578;SDS011;34357;51.948;6.132;2023-04-24T00:58:51;19.70;;;16.55;;
48578;SDS011;34357;51.948;6.132;2023-04-24T01:01:20;19.45;;;17.35;;
48578;SDS011;34357;51.948;6.132;2023-04-24T01:03:47;19.67;;;16.80;;
48578;SDS011;34357;51.948;6.132;2023-04-24T01:06:14;18.52;;;16.60;;
48578;SDS011;34357;51.948;6.132;2023-04-24T01:08:40;17.90;;;15.80;;
48578;SDS011;34357;51.948;6.132;2023-04-24T01:11:07;18.23;;;14.98;;
48578;SDS011;34357;51.948;6.132;2023-04-24T01:13:33;18.65;;;16.77;;
48578;SDS011;34357;51.948;6.132;2023-04-24T01:16:01;18.77;;;16.17;;
48578;SDS011;34357;51.948;6.132;2023-04-24T01:18:27;19.33;;;16.30;;
48578;SDS011;34357;51.948;6.132;2023-04-24T01:20:54;20.15;;;17.00;;
48578;SDS011;34357;51.948;6.132;2023-04-24T01:23:24;17.45;;;15.30;;
48578;SDS011;34357;51.948;6.132;2023-04-24T01:25:50;18.42;;;16.48;;
48578;SDS011;34357;51.948;6.132;2023-04-24T01:28:17;21.20;;;19.00;;
48578;SDS011;34357;51.948;6.132;2023-04-24T01:30:43;20.52;;;18.40;;
48578;SDS011;34357;51.948;6.132;2023-04-24T01:33:09;24.38;;;19.33;;
48578;SDS011;34357;51.948;6.132;2023-04-24T01:35:35;23.83;;;19.40;;
48578;SDS011;34357;51.948;6.132;2023-04-24T01:38:02;25.27;;;19.90;;
48578;SDS011;34357;51.948;6.132;2023-04-24T01:40:28;22.13;;;18.00;;
48578;SDS011;34357;51.948;6.132;2023-04-24T01:42:57;20.98;;;18.25;;
48578;SDS011;34357;51.948;6.132;2023-04-24T01:45:23;22.95;;;17.77;;
48578;SDS011;34357;51.948;6.132;2023-04-24T01:47:50;23.88;;;17.90;;
48578;SDS011;34357;51.948;6.132;2023-04-24T01:50:16;24.08;;;18.48;;
48578;SDS011;34357;51.948;6.132;2023-04-24T01:52:42;22.10;;;19.55;;
48578;SDS011;34357;51.948;6.132;2023-04-24T01:55:08;24.73;;;18.50;;
48578;SDS011;34357;51.948;6.132;2023-04-24T01:57:35;23.17;;;18.67;;
48578;SDS011;34357;51.948;6.132;2023-04-24T02:00:01;21.40;;;17.88;;
48578;SDS011;34357;51.948;6.132;2023-04-24T02:02:41;25.38;;;19.83;;
48578;SDS011;34357;51.948;6.132;2023-04-24T02:05:07;24.65;;;19.27;;
48578;SDS011;34357;51.948;6.132;2023-04-24T02:07:35;26.60;;;19.95;;
48578;SDS011;34357;51.948;6.132;2023-04-24T02:10:01;31.13;;;22.15;;
48578;SDS011;34357;51.948;6.132;2023-04-24T02:12:27;25.92;;;20.85;;
48578;SDS011;34357;51.948;6.132;2023-04-24T02:14:52;30.35;;;21.15;;
48578;SDS011;34357;51.948;6.132;2023-04-24T02:17:18;23.58;;;17.35;;
48578;SDS011;34357;51.948;6.132;2023-04-24T02:19:45;33.53;;;24.92;;
48578;SDS011;34357;51.948;6.132;2023-04-24T02:22:11;36.83;;;26.30;;
48578;SDS011;34357;51.948;6.132;2023-04-24T02:24:37;34.97;;;26.33;;
48578;SDS011;34357;51.948;6.132;2023-04-24T02:27:03;33.42;;;24.73;;
48578;SDS011;34357;51.948;6.132;2023-04-24T02:29:29;34.63;;;26.45;;
48578;SDS011;34357;51.948;6.132;2023-04-24T02:31:55;33.75;;;23.65;;
48578;SDS011;34357;51.948;6.132;2023-04-24T02:34:21;31.65;;;23.75;;
48578;SDS011;34357;51.948;6.132;2023-04-24T02:36:48;28.95;;;23.92;;
48578;SDS011;34357;51.948;6.132;2023-04-24T02:39:14;34.03;;;24.48;;
48578;SDS011;34357;51.948;6.132;2023-04-24T02:41:41;31.33;;;22.98;;
48578;SDS011;34357;51.948;6.132;2023-04-24T02:44:08;28.20;;;22.42;;
48578;SDS011;34357;51.948;6.132;2023-04-24T02:46:34;25.63;;;22.10;;
48578;SDS011;34357;51.948;6.132;2023-04-24T02:48:59;27.30;;;21.40;;
48578;SDS011;34357;51.948;6.132;2023-04-24T02:51:25;24.02;;;20.55;;
48578;SDS011;34357;51.948;6.132;2023-04-24T02:53:52;25.55;;;18.38;;
48578;SDS011;34357;51.948;6.132;2023-04-24T02:56:18;25.98;;;20.95;;
48578;SDS011;34357;51.948;6.132;2023-04-24T02:58:43;25.73;;;20.80;;
48578;SDS011;34357;51.948;6.132;2023-04-24T03:01:09;25.75;;;20.55;;
48578;SDS011;34357;51.948;6.132;2023-04-24T03:03:36;27.83;;;20.70;;
48578;SDS011;34357;51.948;6.132;2023-04-24T03:06:03;27.35;;;21.48;;
48578;SDS011;34357;51.948;6.132;2023-04-24T03:08:31;30.15;;;23.77;;
48578;SDS011;34357;51.948;6.132;2023-04-24T03:10:57;32.50;;;25.58;;
48578;SDS011;34357;51.948;6.132;2023-04-24T03:13:23;35.28;;;28.00;;
48578;SDS011;34357;51.948;6.132;2023-04-24T03:15:49;37.80;;;29.48;;
48578;SDS011;34357;51.948;6.132;2023-04-24T03:18:15;38.63;;;30.45;;
48578;SDS011;34357;51.948;6.132;2023-04-24T03:20:41;43.13;;;32.40;;
48578;SDS011;34357;51.948;6.132;2023-04-24T03:23:07;43.50;;;34.17;;
48578;SDS011;34357;51.948;6.132;2023-04-24T03:25:34;49.70;;;36.33;;
48578;SDS011;34357;51.948;6.132;2023-04-24T03:28:01;46.42;;;34.38;;
48578;SDS011;34357;51.948;6.132;2023-04-24T03:30:42;48.17;;;37.50;;
48578;SDS011;34357;51.948;6.132;2023-04-24T03:33:09;55.70;;;39.22;;
48578;SDS011;34357;51.948;6.132;2023-04-24T03:35:40;53.38;;;40.92;;
48578;SDS011;34357;51.948;6.132;2023-04-24T03:38:09;59.00;;;43.45;;
48578;SDS011;34357;51.948;6.132;2023-04-24T03:40:41;51.30;;;37.10;;
48578;SDS011;34357;51.948;6.132;2023-04-24T03:43:26;54.72;;;41.08;;
48578;SDS011;34357;51.948;6.132;2023-04-24T03:45:53;57.97;;;39.72;;
48578;SDS011;34357;51.948;6.132;2023-04-24T03:48:20;56.72;;;44.90;;
48578;SDS011;34357;51.948;6.132;2023-04-24T03:50:46;57.95;;;45.85;;
48578;SDS011;34357;51.948;6.132;2023-04-24T03:53:12;55.80;;;44.85;;
48578;SDS011;34357;51.948;6.132;2023-04-24T03:55:40;56.38;;;42.45;;
48578;SDS011;34357;51.948;6.132;2023-04-24T03:58:05;54.08;;;38.42;;
48578;SDS011;34357;51.948;6.132;2023-04-24T04:00:31;58.25;;;42.78;;
48578;SDS011;34357;51.948;6.132;2023-04-24T04:03:17;59.50;;;45.45;;
48578;SDS011;34357;51.948;6.132;2023-04-24T04:05:43;63.85;;;45.92;;
48578;SDS011;34357;51.948;6.132;2023-04-24T04:08:08;61.92;;;45.88;;
48578;SDS011;34357;51.948;6.132;2023-04-24T04:10:34;60.15;;;45.28;;
48578;SDS011;34357;51.948;6.132;2023-04-24T04:13:03;61.00;;;47.88;;
48578;SDS011;34357;51.948;6.132;2023-04-24T04:15:28;65.90;;;47.80;;
48578;SDS011;34357;51.948;6.132;2023-04-24T04:17:54;62.17;;;45.38;;
48578;SDS011;34357;51.948;6.132;2023-04-24T04:20:20;61.80;;;45.88;;
48578;SDS011;34357;51.948;6.132;2023-04-24T04:22:46;62.55;;;46.67;;
48578;SDS011;34357;51.948;6.132;2023-04-24T04:25:17;63.95;;;46.75;;
48578;SDS011;34357;51.948;6.132;2023-04-24T04:27:45;68.65;;;47.42;;
48578;SDS011;34357;51.948;6.132;2023-04-24T04:30:13;61.33;;;45.78;;
48578;SDS011;34357;51.948;6.132;2023-04-24T04:32:55;65.72;;;45.30;;
48578;SDS011;34357;51.948;6.132;2023-04-24T04:35:20;61.90;;;44.60;;
48578;SDS011;34357;51.948;6.132;2023-04-24T04:37:46;64.50;;;47.05;;
48578;SDS011;34357;51.948;6.132;2023-04-24T04:40:35;65.50;;;47.30;;
48578;SDS011;34357;51.948;6.132;2023-04-24T04:43:04;63.75;;;45.78;;
48578;SDS011;34357;51.948;6.132;2023-04-24T04:45:37;62.13;;;46.08;;
48578;SDS011;34357;51.948;6.132;2023-04-24T04:48:31;60.58;;;43.55;;
48578;SDS011;34357;51.948;6.132;2023-04-24T04:50:59;60.25;;;42.33;;
48578;SDS011;34357;51.948;6.132;2023-04-24T04:53:26;60.03;;;43.35;;
48578;SDS011;34357;51.948;6.132;2023-04-24T04:55:51;59.15;;;43.15;;
48578;SDS011;34357;51.948;6.132;2023-04-24T04:58:19;65.45;;;42.75;;
48578;SDS011;34357;51.948;6.132;2023-04-24T05:00:48;55.40;;;41.92;;
48578;SDS011;34357;51.948;6.132;2023-04-24T05:03:25;57.97;;;41.70;;
48578;SDS011;34357;51.948;6.132;2023-04-24T05:05:57;52.35;;;40.47;;
48578;SDS011;34357;51.948;6.132;2023-04-24T05:08:23;55.75;;;38.78;;
48578;SDS011;34357;51.948;6.132;2023-04-24T05:10:49;46.72;;;34.88;;
48578;SDS011;34357;51.948;6.132;2023-04-24T05:13:15;51.38;;;36.03;;
48578;SDS011;34357;51.948;6.132;2023-04-24T05:15:40;53.00;;;36.05;;
48578;SDS011;34357;51.948;6.132;2023-04-24T05:18:06;51.63;;;36.00;;
48578;SDS011;34357;51.948;6.132;2023-04-24T05:20:32;45.42;;;33.22;;
48578;SDS011;34357;51.948;6.132;2023-04-24T05:22:58;45.85;;;32.80;;
48578;SDS011;34357;51.948;6.132;2023-04-24T05:25:25;50.08;;;34.47;;
48578;SDS011;34357;51.948;6.132;2023-04-24T05:27:55;51.03;;;32.58;;
48578;SDS011;34357;51.948;6.132;2023-04-24T05:30:22;49.85;;;35.42;;
48578;SDS011;34357;51.948;6.132;2023-04-24T05:32:49;47.83;;;33.30;;
48578;SDS011;34357;51.948;6.132;2023-04-24T05:35:14;40.53;;;31.08;;
48578;SDS011;34357;51.948;6.132;2023-04-24T05:37:41;40.78;;;30.30;;
48578;SDS011;34357;51.948;6.132;2023-04-24T05:40:08;44.13;;;30.35;;
48578;SDS011;34357;51.948;6.132;2023-04-24T05:42:34;39.83;;;29.45;;
48578;SDS011;34357;51.948;6.132;2023-04-24T05:45:00;38.42;;;29.88;;
48578;SDS011;34357;51.948;6.132;2023-04-24T05:47:25;41.30;;;30.73;;
48578;SDS011;34357;51.948;6.132;2023-04-24T05:49:52;41.33;;;30.95;;
48578;SDS011;34357;51.948;6.132;2023-04-24T05:52:18;40.35;;;31.50;;
48578;SDS011;34357;51.948;6.132;2023-04-24T05:54:44;44.00;;;31.98;;
48578;SDS011;34357;51.948;6.132;2023-04-24T05:57:13;44.65;;;32.55;;
48578;SDS011;34357;51.948;6.132;2023-04-24T06:00:01;37.72;;;28.75;;
48578;SDS011;34357;51.948;6.132;2023-04-24T06:02:28;40.60;;;26.52;;
48578;SDS011;34357;51.948;6.132;2023-04-24T06:04:58;34.97;;;26.88;;
48578;SDS011;34357;51.948;6.132;2023-04-24T06:07:25;29.50;;;25.08;;
48578;SDS011;34357;51.948;6.132;2023-04-24T06:09:53;29.15;;;23.45;;
48578;SDS011;34357;51.948;6.132;2023-04-24T06:12:20;27.77;;;20.83;;
48578;SDS011;34357;51.948;6.132;2023-04-24T06:14:54;27.30;;;20.02;;
48578;SDS011;34357;51.948;6.132;2023-04-24T06:17:25;22.10;;;18.02;;
48578;SDS011;34357;51.948;6.132;2023-04-24T06:19:51;27.48;;;19.83;;
48578;SDS011;34357;51.948;6.132;2023-04-24T06:22:18;24.25;;;19.35;;
48578;SDS011;34357;51.948;6.132;2023-04-24T06:24:43;22.52;;;19.27;;
48578;SDS011;34357;51.948;6.132;2023-04-24T06:27:09;25.10;;;19.33;;
48578;SDS011;34357;51.948;6.132;2023-04-24T06:29:35;25.25;;;20.90;;
48578;SDS011;34357;51.948;6.132;2023-04-24T06:32:01;25.30;;;20.35;;
48578;SDS011;34357;51.948;6.132;2023-04-24T06:34:27;23.73;;;19.65;;
48578;SDS011;34357;51.948;6.132;2023-04-24T06:36:53;26.20;;;20.35;;
48578;SDS011;34357;51.948;6.132;2023-04-24T06:39:20;25.02;;;20.42;;
48578;SDS011;34357;51.948;6.132;2023-04-24T06:41:45;25.48;;;20.58;;
48578;SDS011;34357;51.948;6.132;2023-04-24T06:44:18;26.10;;;20.77;;
48578;SDS011;34357;51.948;6.132;2023-04-24T06:46:44;27.55;;;21.42;;
48578;SDS011;34357;51.948;6.132;2023-04-24T06:49:09;23.98;;;20.45;;
48578;SDS011;34357;51.948;6.132;2023-04-24T06:51:35;27.45;;;21.13;;
48578;SDS011;34357;51.948;6.132;2023-04-24T06:54:01;25.65;;;19.73;;
48578;SDS011;34357;51.948;6.132;2023-04-24T06:56:27;23.52;;;17.38;;
48578;SDS011;34357;51.948;6.132;2023-04-24T06:58:54;18.55;;;14.80;;
48578;SDS011;34357;51.948;6.132;2023-04-24T07:01:20;15.85;;;14.02;;
48578;SDS011;34357;51.948;6.132;2023-04-24T07:03:45;13.35;;;11.23;;
48578;SDS011;34357;51.948;6.132;2023-04-24T07:06:11;12.65;;;10.68;;
48578;SDS011;34357;51.948;6.132;2023-04-24T07:08:37;13.90;;;10.85;;
48578;SDS011;34357;51.948;6.132;2023-04-24T07:11:03;12.25;;;10.25;;
48578;SDS011;34357;51.948;6.132;2023-04-24T07:13:29;14.73;;;10.75;;
48578;SDS011;34357;51.948;6.132;2023-04-24T07:15:55;12.88;;;10.63;;
48578;SDS011;34357;51.948;6.132;2023-04-24T07:18:21;12.52;;;11.20;;
48578;SDS011;34357;51.948;6.132;2023-04-24T07:20:47;15.32;;;11.95;;
48578;SDS011;34357;51.948;6.132;2023-04-24T07:23:15;12.20;;;10.93;;
48578;SDS011;34357;51.948;6.132;2023-04-24T07:25:41;14.15;;;12.45;;
48578;SDS011;34357;51.948;6.132;2023-04-24T07:28:07;17.52;;;12.93;;
48578;SDS011;34357;51.948;6.132;2023-04-24T07:30:33;16.05;;;11.35;;
48578;SDS011;34357;51.948;6.132;2023-04-24T07:32:58;14.32;;;11.80;;
48578;SDS011;34357;51.948;6.132;2023-04-24T07:35:25;14.30;;;11.43;;
48578;SDS011;34357;51.948;6.132;2023-04-24T07:37:54;13.57;;;10.93;;
48578;SDS011;34357;51.948;6.132;2023-04-24T07:40:21;12.35;;;10.40;;
48578;SDS011;34357;51.948;6.132;2023-04-24T07:42:47;13.32;;;10.80;;
48578;SDS011;34357;51.948;6.132;2023-04-24T07:45:13;15.20;;;10.85;;
48578;SDS011;34357;51.948;6.132;2023-04-24T07:47:42;11.85;;;10.43;;
48578;SDS011;34357;51.948;6.132;2023-04-24T07:50:10;13.70;;;10.57;;
48578;SDS011;34357;51.948;6.132;2023-04-24T07:52:37;13.35;;;10.23;;
48578;SDS011;34357;51.948;6.132;2023-04-24T07:55:03;9.13;;;7.13;;
48578;SDS011;34357;51.948;6.132;2023-04-24T07:57:29;6.53;;;5.38;;
48578;SDS011;34357;51.948;6.132;2023-04-24T07:59:55;6.10;;;4.55;;
48578;SDS011;34357;51.948;6.132;2023-04-24T08:02:21;5.07;;;3.38;;
48578;SDS011;34357;51.948;6.132;2023-04-24T08:04:51;5.75;;;3.88;;
48578;SDS011;34357;51.948;6.132;2023-04-24T08:07:19;5.95;;;3.55;;
48578;SDS011;34357;51.948;6.132;2023-04-24T08:09:45;6.40;;;5.03;;
48578;SDS011;34357;51.948;6.132;2023-04-24T08:12:10;6.90;;;5.45;;
48578;SDS011;34357;51.948;6.132;2023-04-24T08:14:36;9.32;;;6.32;;
48578;SDS011;34357;51.948;6.132;2023-04-24T08:17:02;8.07;;;6.45;;
48578;SDS011;34357;51.948;6.132;2023-04-24T08:19:28;12.60;;;7.65;;
48578;SDS011;34357;51.948;6.132;2023-04-24T08:21:54;15.43;;;10.82;;
48578;SDS011;34357;51.948;6.132;2023-04-24T08:24:20;17.38;;;10.65;;
48578;SDS011;34357;51.948;6.132;2023-04-24T08:26:46;18.63;;;13.25;;
48578;SDS011;34357;51.948;6.132;2023-04-24T08:29:15;18.00;;;12.75;;
48578;SDS011;34357;51.948;6.132;2023-04-24T08:31:41;16.48;;;12.27;;
48578;SDS011;34357;51.948;6.132;2023-04-24T08:34:07;19.55;;;11.88;;
48578;SDS011;34357;51.948;6.132;2023-04-24T08:36:32;16.92;;;11.23;;
48578;SDS011;34357;51.948;6.132;2023-04-24T08:38:58;22.48;;;13.60;;
48578;SDS011;34357;51.948;6.132;2023-04-24T08:41:24;15.88;;;11.88;;
48578;SDS011;34357;51.948;6.132;2023-04-24T08:43:51;20.85;;;14.10;;
48578;SDS011;34357;51.948;6.132;2023-04-24T08:46:18;18.23;;;13.57;;
48578;SDS011;34357;51.948;6.132;2023-04-24T08:48:45;19.27;;;14.20;;
48578;SDS011;34357;51.948;6.132;2023-04-24T08:51:11;20.08;;;12.18;;
48578;SDS011;34357;51.948;6.132;2023-04-24T08:53:39;20.27;;;13.68;;
48578;SDS011;34357;51.948;6.132;2023-04-24T08:56:05;17.38;;;13.13;;
48578;SDS011;34357;51.948;6.132;2023-04-24T08:58:32;17.73;;;12.75;;
48578;SDS011;34357;51.948;6.132;2023-04-24T09:00:58;19.15;;;12.57;;
48578;SDS011;34357;51.948;6.132;2023-04-24T09:03:26;18.45;;;12.85;;
48578;SDS011;34357;51.948;6.132;2023-04-24T09:05:53;19.95;;;12.02;;
48578;SDS011;34357;51.948;6.132;2023-04-24T09:08:20;25.42;;;13.82;;
48578;SDS011;34357;51.948;6.132;2023-04-24T09:10:50;19.23;;;12.95;;
48578;SDS011;34357;51.948;6.132;2023-04-24T09:13:16;21.48;;;13.93;;
48578;SDS011;34357;51.948;6.132;2023-04-24T09:15:43;20.20;;;13.88;;
48578;SDS011;34357;51.948;6.132;2023-04-24T09:18:09;22.58;;;14.60;;
48578;SDS011;34357;51.948;6.132;2023-04-24T09:20:35;18.65;;;13.80;;
48578;SDS011;34357;51.948;6.132;2023-04-24T09:23:25;17.23;;;11.60;;
48578;SDS011;34357;51.948;6.132;2023-04-24T09:25:54;15.68;;;11.43;;
48578;SDS011;34357;51.948;6.132;2023-04-24T09:28:24;16.60;;;9.07;;
48578;SDS011;34357;51.948;6.132;2023-04-24T09:31:15;13.30;;;7.68;;
48578;SDS011;34357;51.948;6.132;2023-04-24T09:33:57;17.75;;;8.50;;
48578;SDS011;34357;51.948;6.132;2023-04-24T09:36:27;17.58;;;7.22;;
48578;SDS011;34357;51.948;6.132;2023-04-24T09:38:57;14.73;;;6.20;;
48578;SDS011;34357;51.948;6.132;2023-04-24T09:41:27;15.20;;;6.55;;
48578;SDS011;34357;51.948;6.132;2023-04-24T09:43:54;16.88;;;7.07;;
48578;SDS011;34357;51.948;6.132;2023-04-24T09:46:28;20.75;;;7.00;;
48578;SDS011;34357;51.948;6.132;2023-04-24T09:48:55;17.83;;;5.65;;
48578;SDS011;34357;51.948;6.132;2023-04-24T09:51:33;14.52;;;5.65;;
48578;SDS011;34357;51.948;6.132;2023-04-24T09:54:00;18.17;;;5.20;;
48578;SDS011;34357;51.948;6.132;2023-04-24T09:56:26;15.90;;;4.90;;
48578;SDS011;34357;51.948;6.132;2023-04-24T09:58:52;25.13;;;4.90;;
48578;SDS011;34357;51.948;6.132;2023-04-24T10:01:29;17.25;;;4.47;;
48578;SDS011;34357;51.948;6.132;2023-04-24T10:03:56;24.48;;;5.15;;
48578;SDS011;34357;51.948;6.132;2023-04-24T10:06:21;14.80;;;4.22;;
48578;SDS011;34357;51.948;6.132;2023-04-24T10:08:47;13.27;;;3.95;;
48578;SDS011;34357;51.948;6.132;2023-04-24T10:11:15;16.45;;;4.40;;
48578;SDS011;34357;51.948;6.132;2023-04-24T10:13:42;10.93;;;3.08;;
48578;SDS011;34357;51.948;6.132;2023-04-24T10:16:08;14.55;;;3.65;;
48578;SDS011;34357;51.948;6.132;2023-04-24T10:18:35;7.18;;;2.58;;
48578;SDS011;34357;51.948;6.132;2023-04-24T10:21:01;15.60;;;4.18;;
48578;SDS011;34357;51.948;6.132;2023-04-24T10:23:27;16.30;;;3.85;;
48578;SDS011;34357;51.948;6.132;2023-04-24T10:25:54;16.88;;;3.33;;
48578;SDS011;34357;51.948;6.132;2023-04-24T10:28:20;11.52;;;3.65;;
48578;SDS011;34357;51.948;6.132;2023-04-24T10:30:47;18.08;;;4.07;;
48578;SDS011;34357;51.948;6.132;2023-04-24T10:33:14;10.65;;;3.20;;
48578;SDS011;34357;51.948;6.132;2023-04-24T10:35:42;12.98;;;3.45;;
48578;SDS011;34357;51.948;6.132;2023-04-24T10:38:14;14.95;;;3.10;;
48578;SDS011;34357;51.948;6.132;2023-04-24T10:40:43;14.15;;;3.33;;
48578;SDS011;34357;51.948;6.132;2023-04-24T10:43:09;12.77;;;3.28;;
48578;SDS011;34357;51.948;6.132;2023-04-24T10:45:36;8.60;;;2.70;;
48578;SDS011;34357;51.948;6.132;2023-04-24T10:48:04;10.15;;;2.83;;
48578;SDS011;34357;51.948;6.132;2023-04-24T10:53:08;13.45;;;3.15;;
48578;SDS011;34357;51.948;6.132;2023-04-24T10:58:14;15.05;;;3.70;;
48578;SDS011;34357;51.948;6.132;2023-04-24T11:00:42;14.25;;;3.72;;
48578;SDS011;34357;51.948;6.132;2023-04-24T11:08:39;7.22;;;1.95;;
48578;SDS011;34357;51.948;6.132;2023-04-24T11:11:12;6.32;;;2.28;;
48578;SDS011;34357;51.948;6.132;2023-04-24T11:16:35;8.32;;;1.73;;
48578;SDS011;34357;51.948;6.132;2023-04-24T11:19:17;9.10;;;2.15;;
48578;SDS011;34357;51.948;6.132;2023-04-24T11:21:54;10.15;;;2.60;;
48578;SDS011;34357;51.948;6.132;2023-04-24T11:34:53;5.80;;;1.30;;
48578;SDS011;34357;51.948;6.132;2023-04-24T11:37:21;6.03;;;1.50;;
48578;SDS011;34357;51.948;6.132;2023-04-24T11:39:52;4.57;;;1.30;;
48578;SDS011;34357;51.948;6.132;2023-04-24T11:42:19;3.50;;;1.00;;
48578;SDS011;34357;51.948;6.132;2023-04-24T11:44:46;4.72;;;1.38;;
48578;SDS011;34357;51.948;6.132;2023-04-24T11:47:14;4.22;;;0.98;;
48578;SDS011;34357;51.948;6.132;2023-04-24T11:49:40;5.03;;;1.20;;
48578;SDS011;34357;51.948;6.132;2023-04-24T11:52:06;6.20;;;1.60;;
48578;SDS011;34357;51.948;6.132;2023-04-24T11:54:32;5.82;;;1.17;;
48578;SDS011;34357;51.948;6.132;2023-04-24T11:56:58;2.97;;;1.05;;
48578;SDS011;34357;51.948;6.132;2023-04-24T11:59:23;5.70;;;1.10;;
48578;SDS011;34357;51.948;6.132;2023-04-24T12:01:49;2.85;;;0.80;;
48578;SDS011;34357;51.948;6.132;2023-04-24T12:04:16;1.98;;;0.60;;
48578;SDS011;34357;51.948;6.132;2023-04-24T12:09:27;3.85;;;1.00;;
48578;SDS011;34357;51.948;6.132;2023-04-24T12:11:54;5.68;;;1.13;;
48578;SDS011;34357;51.948;6.132;2023-04-24T12:14:23;2.95;;;1.13;;
48578;SDS011;34357;51.948;6.132;2023-04-24T12:16:49;4.00;;;1.02;;
48578;SDS011;34357;51.948;6.132;2023-04-24T12:19:22;5.75;;;1.30;;
48578;SDS011;34357;51.948;6.132;2023-04-24T12:22:01;1.42;;;0.50;;
48578;SDS011;34357;51.948;6.132;2023-04-24T12:24:28;3.97;;;0.70;;
48578;SDS011;34357;51.948;6.132;2023-04-24T12:26:56;2.92;;;1.05;;
48578;SDS011;34357;51.948;6.132;2023-04-24T12:29:23;4.38;;;1.02;;
48578;SDS011;34357;51.948;6.132;2023-04-24T12:31:49;5.10;;;1.50;;
48578;SDS011;34357;51.948;6.132;2023-04-24T12:34:23;5.68;;;1.25;;
48578;SDS011;34357;51.948;6.132;2023-04-24T12:36:50;3.28;;;1.20;;
48578;SDS011;34357;51.948;6.132;2023-04-24T12:41:56;7.90;;;1.63;;
48578;SDS011;34357;51.948;6.132;2023-04-24T12:44:34;5.38;;;2.10;;
48578;SDS011;34357;51.948;6.132;2023-04-24T12:47:00;5.30;;;1.52;;
48578;SDS011;34357;51.948;6.132;2023-04-24T12:49:27;2.15;;;1.20;;
48578;SDS011;34357;51.948;6.132;2023-04-24T12:51:55;5.28;;;1.05;;
48578;SDS011;34357;51.948;6.132;2023-04-24T12:54:21;7.30;;;1.10;;
48578;SDS011;34357;51.948;6.132;2023-04-24T12:56:47;13.90;;;1.40;;
48578;SDS011;34357;51.948;6.132;2023-04-24T12:59:13;7.75;;;0.60;;
48578;SDS011;34357;51.948;6.132;2023-04-24T13:01:38;2.72;;;0.70;;
48578;SDS011;34357;51.948;6.132;2023-04-24T13:04:05;3.95;;;0.93;;
48578;SDS011;34357;51.948;6.132;2023-04-24T13:06:31;5.00;;;0.70;;
48578;SDS011;34357;51.948;6.132;2023-04-24T13:08:57;4.65;;;0.93;;
48578;SDS011;34357;51.948;6.132;2023-04-24T13:11:23;7.15;;;1.05;;
48578;SDS011;34357;51.948;6.132;2023-04-24T13:13:49;5.90;;;1.10;;
48578;SDS011;34357;51.948;6.132;2023-04-24T13:16:15;4.60;;;0.93;;
48578;SDS011;34357;51.948;6.132;2023-04-24T13:18:42;4.57;;;1.20;;
48578;SDS011;34357;51.948;6.132;2023-04-24T13:21:07;4.07;;;0.90;;
48578;SDS011;34357;51.948;6.132;2023-04-24T13:23:33;6.70;;;1.20;;
48578;SDS011;34357;51.948;6.132;2023-04-24T13:25:59;5.72;;;1.65;;
48578;SDS011;34357;51.948;6.132;2023-04-24T13:28:26;5.00;;;0.95;;
48578;SDS011;34357;51.948;6.132;2023-04-24T13:30:52;3.20;;;0.70;;
48578;SDS011;34357;51.948;6.132;2023-04-24T13:33:18;4.47;;;0.90;;
48578;SDS011;34357;51.948;6.132;2023-04-24T13:35:44;3.42;;;0.80;;
48578;SDS011;34357;51.948;6.132;2023-04-24T13:38:10;4.65;;;1.20;;
48578;SDS011;34357;51.948;6.132;2023-04-24T13:40:35;3.75;;;0.65;;
48578;SDS011;34357;51.948;6.132;2023-04-24T13:43:01;6.57;;;1.30;;
48578;SDS011;34357;51.948;6.132;2023-04-24T13:45:27;6.05;;;1.23;;
48578;SDS011;34357;51.948;6.132;2023-04-24T13:47:53;8.30;;;1.67;;
48578;SDS011;34357;51.948;6.132;2023-04-24T13:50:19;7.22;;;1.70;;
48578;SDS011;34357;51.948;6.132;2023-04-24T13:52:45;9.57;;;2.38;;
48578;SDS011;34357;51.948;6.132;2023-04-24T13:55:11;6.97;;;1.63;;
48578;SDS011;34357;51.948;6.132;2023-04-24T13:57:37;7.63;;;1.90;;
48578;SDS011;34357;51.948;6.132;2023-04-24T14:00:03;6.88;;;1.63;;
48578;SDS011;34357;51.948;6.132;2023-04-24T14:02:32;7.50;;;1.42;;
48578;SDS011;34357;51.948;6.132;2023-04-24T14:04:58;8.82;;;2.28;;
48578;SDS011;34357;51.948;6.132;2023-04-24T14:07:23;7.97;;;1.80;;
48578;SDS011;34357;51.948;6.132;2023-04-24T14:09:49;11.02;;;1.90;;
48578;SDS011;34357;51.948;6.132;2023-04-24T14:12:15;9.57;;;2.10;;
48578;SDS011;34357;51.948;6.132;2023-04-24T14:14:44;7.97;;;2.03;;
48578;SDS011;34357;51.948;6.132;2023-04-24T14:17:11;11.18;;;1.95;;
48578;SDS011;34357;51.948;6.132;2023-04-24T14:19:36;11.15;;;2.83;;
48578;SDS011;34357;51.948;6.132;2023-04-24T14:22:02;13.70;;;2.13;;
48578;SDS011;34357;51.948;6.132;2023-04-24T14:24:28;9.43;;;1.65;;
48578;SDS011;34357;51.948;6.132;2023-04-24T14:26:54;12.25;;;1.80;;
48578;SDS011;34357;51.948;6.132;2023-04-24T14:29:21;8.10;;;2.33;;
48578;SDS011;34357;51.948;6.132;2023-04-24T14:31:47;4.20;;;1.38;;
48578;SDS011;34357;51.948;6.132;2023-04-24T14:34:13;12.05;;;2.20;;
48578;SDS011;34357;51.948;6.132;2023-04-24T14:36:39;9.57;;;2.40;;
48578;SDS011;34357;51.948;6.132;2023-04-24T14:39:05;14.07;;;2.78;;
48578;SDS011;34357;51.948;6.132;2023-04-24T14:41:31;9.98;;;2.30;;
48578;SDS011;34357;51.948;6.132;2023-04-24T14:44:01;9.43;;;2.58;;
48578;SDS011;34357;51.948;6.132;2023-04-24T14:46:28;10.95;;;2.90;;
48578;SDS011;34357;51.948;6.132;2023-04-24T14:48:55;13.63;;;2.40;;
48578;SDS011;34357;51.948;6.132;2023-04-24T14:51:21;14.48;;;2.80;;
48578;SDS011;34357;51.948;6.132;2023-04-24T14:53:47;10.45;;;2.22;;
48578;SDS011;34357;51.948;6.132;2023-04-24T14:56:13;10.43;;;3.08;;
48578;SDS011;34357;51.948;6.132;2023-04-24T14:58:39;10.77;;;2.38;;